Weather observations for the past three days for
Marquette Sawyer Regional Airport
| Date | Time (edt) | Wind (kph) | Vis. (km) | Weather | Sky Cond. | Temperature (ºC) | Relative Humidity | Wind Chill (°C) | Heat Index (°C) | Pressure | Precipitation (cm) | ||||||
|---|---|---|---|---|---|---|---|---|---|---|---|---|---|---|---|---|---|
| Air | Dwpt | 6 hour | altimeter (cm) | sea level (mb) | 1 hr | 3 hr | 6 hr | ||||||||||
| Max. | Min. | ||||||||||||||||
| 08 | 20:45 | E 17 | 16.09 | Overcast | OVC090 | 11 | -5 | 32% | 75.18 | 0.0 | |||||||
| 08 | 19:45 | E 15 | 16.09 | Overcast | OVC090 | 12 | -5 | 30% | 75.21 | 0.0 | |||||||
| 08 | 18:46 | NE 20 | 16.09 | Overcast | OVC090 | 12 | -4 | 33% | 75.21 | 0.0 | |||||||
| 08 | 17:50 | NE 19 | 16.09 | Overcast | OVC100 | 12 | -5 | 30% | 75.23 | 0.0 | |||||||
| 08 | 16:45 | NE 22 | 16.09 | Overcast | OVC090 | 13 | -5 | 28% | 75.23 | 0.0 | |||||||
| 08 | 15:45 | W 15 G 33 | 16.09 | Mostly Cloudy | BKN100 | 15 | -7 | 21% | 75.29 | 0.0 | |||||||
| 08 | 14:45 | NW 17 | 16.09 | Partly Cloudy | SCT065 | 14 | -6 | 25% | 75.34 | 0.0 | |||||||
| 08 | 13:45 | W 13 G 35 | 16.09 | Mostly Cloudy | BKN070 BKN080 | 13 | -4 | 31% | 75.39 | 0.0 | |||||||
| 08 | 12:45 | NW 17 | 16.09 | Partly Cloudy | SCT050 | 11 | -4 | 35% | 75.44 | 0.0 | |||||||
| 08 | 11:50 | W 11 | 16.09 | A Few Clouds | FEW050 | 11 | -2 | 41% | 75.49 | 0.0 | |||||||
| 08 | 10:47 | SW 11 | 16.09 | Fair | CLR | 8 | 1 | 62% | 6 | 75.54 | 0.0 | ||||||
| 08 | 09:47 | W 7 | 16.09 | Fair | CLR | 5 | 4 | 93% | 4 | 75.57 | 0.0 | ||||||
| 08 | 08:47 | SW 6 | 16.09 | Fair | CLR | 1 | 1 | 100% | 75.59 | 0.0 | |||||||
| 08 | 07:47 | Calm | 16.09 | Fair | CLR | -2 | -2 | 100% | 75.57 | 0.0 | |||||||
| 08 | 06:47 | Calm | 16.09 | Shallow Fog | SKC | -4 | -4 | 100% | 75.57 | 0.0 | |||||||
| 08 | 05:58 | S 4 | 12.87 | Mostly Cloudy | BKN075 | -2 | -3 | 93% | 75.59 | 0.0 | |||||||
| 08 | 05:38 | SW 6 | 16.09 | Overcast | OVC075 | -2 | -2 | 100% | 75.59 | 0.0 | |||||||
| 08 | 05:18 | SW 6 | 1.21 | Fog/Mist | OVC075 | -2 | -2 | 100% | 75.62 | 0.0 | |||||||
| 08 | 04:58 | SW 4 | 1.21 | Fog/Mist | OVC075 | -3 | -3 | 100% | 75.62 | 0.0 | |||||||
| 08 | 04:38 | W 2 | 0.40 | Freezing Fog | OVC075 | -3 | -3 | 100% | 75.62 | 0.0 | |||||||
| 08 | 04:18 | S 4 | 0.40 | Freezing Fog | VV002 | -3 | -3 | 100% | 75.62 | 0.0 | |||||||
| 08 | 03:58 | SW 4 | 0.24 | Freezing Fog | VV000 | -3 | -3 | 100% | 75.62 | 0.0 | |||||||
| 08 | 03:38 | W 4 | 0.40 | Freezing Fog | VV002 | -3 | -3 | 100% | 75.62 | 0.0 | |||||||
| 08 | 03:18 | W 2 | 0.40 | Freezing Fog | VV002 | -2 | -2 | 100% | 75.64 | 0.0 | |||||||
| 08 | 02:58 | Calm | 0.40 | Freezing Fog | VV002 | -2 | -2 | 100% | 75.64 | 0.0 | |||||||
| 08 | 02:38 | SW 6 | 0.40 | Freezing Fog | VV002 | -2 | -2 | 100% | 75.67 | 0.0 | |||||||
| 08 | 02:18 | SW 6 | 0.40 | Freezing Fog | VV002 | -1 | -1 | 100% | 75.67 | 0.0 | |||||||
| 08 | 01:58 | SW 6 | 0.40 | Freezing Fog | VV002 | -1 | -1 | 100% | 75.69 | 0.0 | |||||||
| 08 | 01:38 | Calm | 0.24 | Freezing Fog | VV000 | -1 | -1 | 100% | 75.69 | 0.0 | |||||||
| 08 | 01:18 | SW 6 | 0.40 | Freezing Fog | BKN080 | -1 | -1 | 100% | 75.72 | 0.0 | |||||||
| 08 | 00:58 | SW 6 | 0.40 | Freezing Fog | OVC080 | -1 | -1 | 100% | 75.72 | 0.0 | |||||||
| 08 | 00:38 | S 9 | 0.40 | Freezing Fog | BKN001 OVC090 | 0 | 0 | 100% | -3 | 75.72 | 0.0 | ||||||
| 08 | 00:18 | SW 6 | 6.44 | Fog/Mist | FEW090 | 0 | 0 | 100% | 75.72 | 0.0 | |||||||
| 07 | 23:58 | S 6 | 12.87 | Mostly Cloudy | SCT001 BKN090 | 0 | 0 | 100% | 75.72 | 0.0 | |||||||
| 07 | 23:38 | SE 7 | 16.09 | Partly Cloudy | SCT001 | 0 | 0 | 100% | -2 | 75.74 | 0.0 | ||||||
| 07 | 23:18 | SE 7 | 16.09 | Partly Cloudy | SCT100 | 1 | 0 | 93% | -1 | 75.77 | 0.0 | ||||||
| 07 | 22:58 | S 7 | 16.09 | Mostly Cloudy | BKN100 | 1 | 0 | 93% | -1 | 75.77 | 0.0 | ||||||
| 07 | 22:38 | E 6 | 6.44 | Light Snow Fog/Mist | FEW008 | 1 | 0 | 93% | 75.77 | 0.0 | |||||||
| 07 | 22:18 | NW 17 | 6.44 | Light Snow Fog/Mist | BKN008 BKN012 | 1 | 0 | 93% | -3 | 75.84 | 0.0 | ||||||
| 07 | 21:46 | NW 20 | 16.09 | Mostly Cloudy | SCT016 BKN027 BKN050 | 4 | -1 | 70% | 0 | 75.79 | 0.0 | ||||||
| 07 | 20:46 | NE 9 | 16.09 | Overcast | OVC070 | 6 | -4 | 49% | 4 | 75.64 | 0.0 | ||||||
| 07 | 19:46 | NE 17 | 16.09 | Overcast | OVC070 | 6 | -3 | 53% | 3 | 75.64 | 0.0 | ||||||
| 07 | 18:46 | NE 17 | 16.09 | Overcast | OVC070 | 6 | -1 | 61% | 3 | 75.64 | 0.0 | ||||||
| 07 | 17:46 | NE 19 G 31 | 16.09 | Overcast | BKN070 OVC090 | 6 | -1 | 61% | 3 | 75.64 | 0.0 | ||||||
| 07 | 16:46 | SW 13 | 16.09 | Mostly Cloudy | BKN080 | 7 | -3 | 49% | 5 | 75.62 | 0.0 | ||||||
| 07 | 15:46 | W 15 | 16.09 | Light Rain | SCT043 SCT060 BKN070 | 6 | 0 | 66% | 3 | 75.67 | 0.0 | ||||||
| 07 | 14:46 | W 6 | 16.09 | Light Rain | SCT043 BKN050 OVC080 | 4 | 0 | 75% | 75.72 | 0.0 | |||||||
| 07 | 13:46 | W 26 G 41 | 11.27 | Light Rain | SCT035 BKN043 OVC080 | 4 | -1 | 70% | -0 | 75.74 | 0.0 | ||||||
| 07 | 12:46 | W 22 | 12.87 | Light Rain | SCT041 BKN049 OVC065 | 4 | -1 | 70% | -0 | 75.79 | 0.0 | ||||||
| 07 | 11:47 | NW 19 | 16.09 | Light Rain | BKN034 OVC044 | 4 | -2 | 65% | 0 | 75.79 | 0.0 | ||||||
| 07 | 10:47 | W 19 | 16.09 | Overcast | SCT031 BKN044 OVC080 | 4 | -3 | 61% | 0 | 75.79 | 0.0 | ||||||
| 07 | 09:47 | W 15 | 16.09 | Overcast | OVC060 | 4 | -3 | 61% | 1 | 75.79 | 0.0 | ||||||
| 07 | 08:47 | W 15 | 16.09 | Overcast | OVC060 | 3 | -2 | 70% | -0 | 75.82 | 0.0 | ||||||
| 07 | 07:47 | W 7 | 16.09 | Overcast | OVC060 | 1 | -3 | 75% | -1 | 75.79 | 0.0 | ||||||
| 07 | 06:50 | SW 6 | 16.09 | Overcast | OVC060 | 0 | -3 | 80% | 75.79 | 0.0 | |||||||
| 07 | 05:58 | SW 7 | 16.09 | Overcast | OVC060 | 0 | -3 | 80% | -2 | 75.77 | 0.0 | ||||||
| 07 | 05:38 | S 6 | 16.09 | Overcast | OVC060 | 0 | -3 | 80% | 75.79 | 0.0 | |||||||
| 07 | 05:18 | S 6 | 16.09 | Overcast | OVC060 | 0 | -2 | 87% | 75.79 | 0.0 | |||||||
| 07 | 04:58 | S 6 | 16.09 | Overcast | OVC060 | 1 | -2 | 81% | 75.82 | 0.0 | |||||||
| 07 | 04:38 | S 6 | 16.09 | Overcast | OVC060 | 1 | -2 | 81% | 75.82 | 0.0 | |||||||
| 07 | 04:18 | S 6 | 16.09 | Overcast | OVC060 | 1 | -2 | 81% | 75.82 | 0.0 | |||||||
| 07 | 03:58 | S 7 | 16.09 | Overcast | FEW039 OVC060 | 1 | -2 | 81% | -1 | 75.82 | 0.0 | ||||||
| 07 | 03:38 | S 6 | 16.09 | Overcast | BKN039 OVC060 | 1 | -3 | 75% | 75.84 | 0.0 | |||||||
| 07 | 03:18 | SW 6 | 16.09 | Overcast | SCT039 SCT048 OVC060 | 1 | -3 | 75% | 75.84 | 0.0 | |||||||
| 07 | 02:58 | SW 6 | 16.09 | Overcast | BKN039 BKN048 OVC060 | 1 | -3 | 75% | 75.87 | 0.0 | |||||||
| 07 | 02:38 | SW 7 | 16.09 | Overcast | SCT041 OVC060 | 1 | -4 | 70% | -1 | 75.9 | 0.0 | ||||||
| 07 | 02:18 | SW 6 | 16.09 | Overcast | OVC060 | 0 | -3 | 80% | 75.9 | 0.0 | |||||||
| 07 | 01:58 | SW 6 | 16.09 | Overcast | OVC060 | 0 | -3 | 80% | 75.9 | 0.0 | |||||||
| 07 | 01:38 | SW 9 | 16.09 | Overcast | OVC060 | 0 | -3 | 80% | -3 | 75.92 | 0.0 | ||||||
| 07 | 01:18 | SW 7 | 16.09 | Overcast | OVC060 | 0 | -4 | 75% | -2 | 75.92 | 0.0 | ||||||
| 07 | 00:58 | S 7 | 16.09 | Overcast | OVC060 | 1 | -4 | 70% | -1 | 75.92 | 0.0 | ||||||
| 07 | 00:38 | S 7 | 16.09 | Overcast | OVC060 | 1 | -4 | 70% | -1 | 75.92 | 0.0 | ||||||
| 07 | 00:18 | S 7 | 16.09 | Overcast | OVC060 | 1 | -4 | 70% | -1 | 75.92 | 0.0 | ||||||
| 06 | 23:38 | SW 6 | 16.09 | Overcast | OVC060 | 1 | -4 | 70% | 75.95 | 0.0 | |||||||
| 06 | 23:18 | S 6 | 16.09 | Overcast | OVC060 | 1 | -3 | 75% | 75.95 | 0.0 | |||||||
| 06 | 22:58 | SE 6 | 16.09 | Mostly Cloudy | BKN060 | 1 | -4 | 70% | 75.95 | 0.0 | |||||||
| 06 | 22:38 | SE 4 | 16.09 | Partly Cloudy | SCT060 | 2 | -4 | 65% | 75.95 | 0.0 | |||||||
| 06 | 22:18 | SE 2 | 16.09 | Overcast | OVC060 | 2 | -4 | 65% | 75.95 | 0.0 | |||||||
| 06 | 21:45 | E 6 | 16.09 | Overcast | OVC060 | 2 | -4 | 65% | 75.95 | 0.0 | |||||||
| 06 | 20:45 | E 11 | 16.09 | Overcast | OVC050 | 2 | -4 | 65% | -1 | 75.92 | 0.0 | ||||||
| 06 | 19:45 | E 11 | 16.09 | Overcast | OVC050 | 3 | -4 | 60% | 0 | 75.9 | 0.0 | ||||||
| 06 | 18:45 | W 15 | 16.09 | Overcast | OVC050 | 4 | -6 | 48% | 1 | 75.9 | 0.0 | ||||||
| 06 | 17:45 | W 22 | 16.09 | Overcast | OVC050 | 5 | -6 | 45% | 1 | 75.87 | 0.0 | ||||||
| 06 | 16:45 | NW 20 | 16.09 | Overcast | OVC050 | 4 | -5 | 52% | 0 | 75.9 | 0.0 | ||||||
| 06 | 15:45 | W 11 | 16.09 | Overcast | SCT041 OVC050 | 4 | -5 | 52% | 2 | 75.87 | 0.0 | ||||||
| 06 | 14:45 | W 20 G 31 | 16.09 | Overcast | BKN041 OVC055 | 5 | -5 | 49% | 1 | 75.9 | 0.0 | ||||||
| 06 | 13:45 | NW 15 G 26 | 16.09 | Overcast | OVC050 | 4 | -7 | 45% | 1 | 75.9 | 0.0 | ||||||
| 06 | 12:46 | W 22 G 30 | 16.09 | Overcast | OVC050 | 4 | -7 | 45% | -0 | 75.9 | 0.0 | ||||||
| 06 | 11:46 | W 24 | 16.09 | Overcast | OVC048 | 3 | -7 | 48% | -2 | 75.9 | 0.0 | ||||||
| 06 | 10:46 | W 19 G 33 | 16.09 | Overcast | BKN046 OVC055 | 3 | -6 | 52% | -1 | 75.87 | 0.0 | ||||||
| 06 | 09:46 | W 17 | 16.09 | Overcast | OVC040 | 2 | -6 | 56% | -2 | 75.9 | 0.0 | ||||||
| 06 | 08:46 | W 15 | 16.09 | Overcast | OVC038 | 1 | -5 | 65% | -3 | 75.84 | 0.0 | ||||||
| 06 | 07:46 | W 9 | 16.09 | Overcast | OVC044 | 0 | -5 | 69% | -3 | 75.82 | 0.0 | ||||||
| 06 | 06:46 | W 9 | 16.09 | Overcast | OVC044 | 0 | -5 | 69% | -3 | 75.79 | 0.0 | ||||||
| 06 | 05:58 | W 7 | 16.09 | Overcast | OVC046 | 0 | -5 | 69% | -2 | 75.77 | 0.0 | ||||||
| 06 | 05:38 | W 7 | 16.09 | Overcast | OVC046 | 0 | -6 | 64% | -2 | 75.77 | 0.0 | ||||||
| 06 | 05:18 | W 9 | 16.09 | Overcast | OVC046 | -1 | -6 | 69% | -4 | 75.77 | 0.0 | ||||||
| 06 | 04:58 | W 11 | 16.09 | Overcast | OVC046 | -1 | -6 | 69% | -4 | 75.77 | 0.0 | ||||||
| 06 | 04:38 | SW 7 | 16.09 | Overcast | OVC046 | -1 | -6 | 69% | -3 | 75.77 | 0.0 | ||||||
| 06 | 04:18 | SW 6 | 16.09 | Overcast | OVC046 | -1 | -6 | 69% | 75.77 | 0.0 | |||||||
| 06 | 03:58 | SW 9 | 16.09 | Overcast | OVC046 | -1 | -6 | 69% | -4 | 75.77 | 0.0 | ||||||
| 06 | 03:38 | SW 9 | 16.09 | Overcast | OVC046 | -1 | -6 | 69% | -4 | 75.74 | 0.0 | ||||||
| 06 | 03:18 | SW 9 | 16.09 | Overcast | OVC044 | -1 | -6 | 69% | -4 | 75.74 | 0.0 | ||||||
| 06 | 02:58 | SW 7 | 16.09 | Overcast | OVC046 | -1 | -6 | 69% | -3 | 75.77 | 0.0 | ||||||
| 06 | 02:38 | SW 7 | 16.09 | Overcast | OVC046 | -2 | -6 | 74% | -4 | 75.77 | 0.0 | ||||||
| 06 | 02:18 | SW 9 | 16.09 | Overcast | OVC046 | -2 | -7 | 69% | -5 | 75.74 | 0.0 | ||||||
| 06 | 01:58 | SW 9 | 16.09 | Mostly Cloudy | BKN046 | -2 | -7 | 69% | -5 | 75.74 | 0.0 | ||||||
| 06 | 01:38 | SW 9 | 16.09 | A Few Clouds | FEW046 | -3 | -7 | 74% | -6 | 75.77 | 0.0 | ||||||
| 06 | 01:18 | SW 7 | 16.09 | Fair | CLR | -3 | -8 | 69% | -6 | 75.74 | 0.0 | ||||||
| 06 | 00:58 | NW 6 | 16.09 | Fair | CLR | -2 | -7 | 69% | 75.74 | 0.0 | |||||||
| 06 | 00:38 | NW 6 | 16.09 | Fair | CLR | -1 | -7 | 64% | 75.74 | 0.0 | |||||||
| 06 | 00:18 | W 2 | 16.09 | A Few Clouds | FEW047 | 0 | -7 | 60% | 75.74 | 0.0 | |||||||
| 05 | 23:58 | W 2 | 16.09 | Overcast | OVC047 | 0 | -7 | 60% | 75.74 | 0.0 | |||||||
| 05 | 23:38 | NW 4 | 16.09 | Overcast | OVC049 | 0 | -7 | 60% | 75.74 | 0.0 | |||||||
| 05 | 23:18 | NW 6 | 16.09 | Overcast | OVC049 | 0 | -7 | 60% | 75.74 | 0.0 | |||||||
| 05 | 22:58 | W 6 | 16.09 | Mostly Cloudy | BKN049 | 0 | -7 | 60% | 75.74 | 0.0 | |||||||
| 05 | 22:38 | NW 9 | 16.09 | Fair | CLR | 0 | -8 | 55% | -3 | 75.74 | 0.0 | ||||||
| 05 | 22:18 | NW 13 | 16.09 | Fair | CLR | 1 | -8 | 51% | -2 | 75.74 | 0.0 | ||||||
| 05 | 21:47 | NW 22 G 31 | 16.09 | Fair | CLR | 2 | -7 | 52% | -3 | 75.72 | 0.0 | ||||||
| Date | Time (edt) | Wind (kph) | Vis. (km) | Weather | Sky Cond. | Air | Dwpt | Max. | Min. | Relative Humidity | Wind Chill (°C) | Heat Index (°C) | altimeter (cm) | sea level (mb) | 1 hr | 3 hr | 6 hr |
| 6 hour | |||||||||||||||||
| Temperature (ºC) | Pressure | Precipitation (cm) | |||||||||||||||